sensor_id;sensor_type;location;lat;lon;timestamp;P1;durP1;ratioP1;P2;durP2;ratioP2
23676;SDS011;31493;49.058;12.190;2023-05-07T00:01:36;4.45;;;3.80;;
23676;SDS011;31493;49.058;12.190;2023-05-07T00:04:05;7.78;;;4.38;;
23676;SDS011;31493;49.058;12.190;2023-05-07T00:08:59;6.97;;;3.90;;
23676;SDS011;31493;49.058;12.190;2023-05-07T00:11:26;4.47;;;3.90;;
23676;SDS011;31493;49.058;12.190;2023-05-07T00:13:54;7.57;;;4.30;;
23676;SDS011;31493;49.058;12.190;2023-05-07T00:16:21;6.20;;;3.75;;
23676;SDS011;31493;49.058;12.190;2023-05-07T00:18:48;6.05;;;4.43;;
23676;SDS011;31493;49.058;12.190;2023-05-07T00:21:17;6.75;;;4.20;;
23676;SDS011;31493;49.058;12.190;2023-05-07T00:23:44;7.78;;;4.50;;
23676;SDS011;31493;49.058;12.190;2023-05-07T00:26:11;5.80;;;4.50;;
23676;SDS011;31493;49.058;12.190;2023-05-07T00:28:38;5.32;;;4.15;;
23676;SDS011;31493;49.058;12.190;2023-05-07T00:31:05;6.13;;;4.35;;
23676;SDS011;31493;49.058;12.190;2023-05-07T00:33:32;6.35;;;4.57;;
23676;SDS011;31493;49.058;12.190;2023-05-07T00:35:59;7.63;;;4.80;;
23676;SDS011;31493;49.058;12.190;2023-05-07T00:38:28;6.57;;;5.03;;
23676;SDS011;31493;49.058;12.190;2023-05-07T00:40:55;7.07;;;4.88;;
23676;SDS011;31493;49.058;12.190;2023-05-07T00:43:22;7.50;;;4.82;;
23676;SDS011;31493;49.058;12.190;2023-05-07T00:45:49;6.28;;;4.82;;
23676;SDS011;31493;49.058;12.190;2023-05-07T00:48:17;6.53;;;4.97;;
23676;SDS011;31493;49.058;12.190;2023-05-07T00:50:44;6.60;;;5.18;;
23676;SDS011;31493;49.058;12.190;2023-05-07T00:53:12;9.60;;;6.00;;
23676;SDS011;31493;49.058;12.190;2023-05-07T00:55:41;10.75;;;5.90;;
23676;SDS011;31493;49.058;12.190;2023-05-07T00:58:08;9.00;;;6.72;;
23676;SDS011;31493;49.058;12.190;2023-05-07T01:00:35;9.40;;;5.82;;
23676;SDS011;31493;49.058;12.190;2023-05-07T01:03:02;8.52;;;6.32;;
23676;SDS011;31493;49.058;12.190;2023-05-07T01:05:29;8.70;;;6.22;;
23676;SDS011;31493;49.058;12.190;2023-05-07T01:07:57;7.63;;;6.22;;
23676;SDS011;31493;49.058;12.190;2023-05-07T01:10:25;6.57;;;5.88;;
23676;SDS011;31493;49.058;12.190;2023-05-07T01:12:54;8.93;;;6.47;;
23676;SDS011;31493;49.058;12.190;2023-05-07T01:15:21;10.30;;;7.10;;
23676;SDS011;31493;49.058;12.190;2023-05-07T01:17:48;8.98;;;7.03;;
23676;SDS011;31493;49.058;12.190;2023-05-07T01:20:15;8.93;;;7.00;;
23676;SDS011;31493;49.058;12.190;2023-05-07T01:22:43;9.68;;;6.63;;
23676;SDS011;31493;49.058;12.190;2023-05-07T01:27:39;10.80;;;7.15;;
23676;SDS011;31493;49.058;12.190;2023-05-07T01:30:07;10.75;;;7.40;;
23676;SDS011;31493;49.058;12.190;2023-05-07T01:32:36;11.77;;;7.85;;
23676;SDS011;31493;49.058;12.190;2023-05-07T01:35:07;9.65;;;7.63;;
23676;SDS011;31493;49.058;12.190;2023-05-07T01:37:38;11.55;;;7.75;;
23676;SDS011;31493;49.058;12.190;2023-05-07T01:40:08;11.90;;;7.90;;
23676;SDS011;31493;49.058;12.190;2023-05-07T01:42:35;11.13;;;8.45;;
23676;SDS011;31493;49.058;12.190;2023-05-07T01:45:03;12.82;;;8.10;;
23676;SDS011;31493;49.058;12.190;2023-05-07T01:47:31;9.23;;;8.15;;
23676;SDS011;31493;49.058;12.190;2023-05-07T01:49:59;10.10;;;8.00;;
23676;SDS011;31493;49.058;12.190;2023-05-07T01:52:27;9.70;;;8.38;;
23676;SDS011;31493;49.058;12.190;2023-05-07T01:54:54;9.35;;;8.05;;
23676;SDS011;31493;49.058;12.190;2023-05-07T01:57:22;14.95;;;8.93;;
23676;SDS011;31493;49.058;12.190;2023-05-07T01:59:49;11.27;;;8.27;;
23676;SDS011;31493;49.058;12.190;2023-05-07T02:02:16;12.20;;;8.98;;
23676;SDS011;31493;49.058;12.190;2023-05-07T02:04:43;13.02;;;8.73;;
23676;SDS011;31493;49.058;12.190;2023-05-07T02:07:10;9.85;;;8.77;;
23676;SDS011;31493;49.058;12.190;2023-05-07T02:09:37;15.50;;;9.15;;
23676;SDS011;31493;49.058;12.190;2023-05-07T02:12:04;14.73;;;9.27;;
23676;SDS011;31493;49.058;12.190;2023-05-07T02:14:33;10.40;;;9.10;;
23676;SDS011;31493;49.058;12.190;2023-05-07T02:17:00;10.40;;;9.00;;
23676;SDS011;31493;49.058;12.190;2023-05-07T02:19:27;13.50;;;9.63;;
23676;SDS011;31493;49.058;12.190;2023-05-07T02:21:54;13.05;;;10.02;;
23676;SDS011;31493;49.058;12.190;2023-05-07T02:24:21;12.48;;;9.60;;
23676;SDS011;31493;49.058;12.190;2023-05-07T02:26:48;13.20;;;9.65;;
23676;SDS011;31493;49.058;12.190;2023-05-07T02:29:15;12.60;;;9.18;;
23676;SDS011;31493;49.058;12.190;2023-05-07T02:31:43;12.60;;;9.32;;
23676;SDS011;31493;49.058;12.190;2023-05-07T02:34:10;12.98;;;9.38;;
23676;SDS011;31493;49.058;12.190;2023-05-07T02:36:37;13.13;;;10.13;;
23676;SDS011;31493;49.058;12.190;2023-05-07T02:39:05;13.45;;;10.40;;
23676;SDS011;31493;49.058;12.190;2023-05-07T02:41:32;11.57;;;9.70;;
23676;SDS011;31493;49.058;12.190;2023-05-07T02:43:59;13.48;;;10.27;;
23676;SDS011;31493;49.058;12.190;2023-05-07T02:46:26;12.75;;;10.10;;
23676;SDS011;31493;49.058;12.190;2023-05-07T02:48:55;14.50;;;10.05;;
23676;SDS011;31493;49.058;12.190;2023-05-07T02:51:22;14.25;;;10.30;;
23676;SDS011;31493;49.058;12.190;2023-05-07T02:53:49;13.52;;;10.45;;
23676;SDS011;31493;49.058;12.190;2023-05-07T02:56:16;13.57;;;10.35;;
23676;SDS011;31493;49.058;12.190;2023-05-07T02:58:43;16.15;;;10.48;;
23676;SDS011;31493;49.058;12.190;2023-05-07T03:01:10;12.07;;;10.23;;
23676;SDS011;31493;49.058;12.190;2023-05-07T03:03:39;12.23;;;10.27;;
23676;SDS011;31493;49.058;12.190;2023-05-07T03:06:07;12.13;;;10.10;;
23676;SDS011;31493;49.058;12.190;2023-05-07T03:08:35;14.35;;;10.63;;
23676;SDS011;31493;49.058;12.190;2023-05-07T03:11:02;12.57;;;10.70;;
23676;SDS011;31493;49.058;12.190;2023-05-07T03:13:29;14.50;;;10.38;;
23676;SDS011;31493;49.058;12.190;2023-05-07T03:15:56;14.43;;;11.13;;
23676;SDS011;31493;49.058;12.190;2023-05-07T03:18:23;12.38;;;10.68;;
23676;SDS011;31493;49.058;12.190;2023-05-07T03:20:51;12.90;;;11.00;;
23676;SDS011;31493;49.058;12.190;2023-05-07T03:23:19;14.00;;;10.85;;
23676;SDS011;31493;49.058;12.190;2023-05-07T03:25:46;14.52;;;11.57;;
23676;SDS011;31493;49.058;12.190;2023-05-07T03:28:13;14.32;;;11.55;;
23676;SDS011;31493;49.058;12.190;2023-05-07T03:30:40;16.17;;;11.40;;
23676;SDS011;31493;49.058;12.190;2023-05-07T03:33:07;14.30;;;11.10;;
23676;SDS011;31493;49.058;12.190;2023-05-07T03:35:34;15.60;;;11.52;;
23676;SDS011;31493;49.058;12.190;2023-05-07T03:38:01;14.95;;;11.10;;
23676;SDS011;31493;49.058;12.190;2023-05-07T03:40:30;16.90;;;11.48;;
23676;SDS011;31493;49.058;12.190;2023-05-07T03:42:57;13.57;;;10.70;;
23676;SDS011;31493;49.058;12.190;2023-05-07T03:45:24;13.35;;;11.05;;
23676;SDS011;31493;49.058;12.190;2023-05-07T03:47:52;13.05;;;10.60;;
23676;SDS011;31493;49.058;12.190;2023-05-07T03:50:19;13.13;;;10.48;;
23676;SDS011;31493;49.058;12.190;2023-05-07T03:52:46;12.52;;;10.73;;
23676;SDS011;31493;49.058;12.190;2023-05-07T03:55:13;14.18;;;11.02;;
23676;SDS011;31493;49.058;12.190;2023-05-07T03:57:41;13.90;;;10.82;;
23676;SDS011;31493;49.058;12.190;2023-05-07T04:00:09;13.00;;;11.25;;
23676;SDS011;31493;49.058;12.190;2023-05-07T04:02:37;13.68;;;11.63;;
23676;SDS011;31493;49.058;12.190;2023-05-07T04:05:04;12.77;;;10.75;;
23676;SDS011;31493;49.058;12.190;2023-05-07T04:07:31;14.20;;;11.13;;
23676;SDS011;31493;49.058;12.190;2023-05-07T04:09:58;15.45;;;10.70;;
23676;SDS011;31493;49.058;12.190;2023-05-07T04:12:25;14.82;;;11.02;;
23676;SDS011;31493;49.058;12.190;2023-05-07T04:14:53;15.70;;;11.13;;
23676;SDS011;31493;49.058;12.190;2023-05-07T04:17:20;14.73;;;11.95;;
23676;SDS011;31493;49.058;12.190;2023-05-07T04:19:47;14.13;;;11.57;;
23676;SDS011;31493;49.058;12.190;2023-05-07T04:22:14;15.07;;;11.35;;
23676;SDS011;31493;49.058;12.190;2023-05-07T04:24:41;13.73;;;11.55;;
23676;SDS011;31493;49.058;12.190;2023-05-07T04:27:08;13.90;;;11.43;;
23676;SDS011;31493;49.058;12.190;2023-05-07T04:29:35;14.45;;;10.98;;
23676;SDS011;31493;49.058;12.190;2023-05-07T04:32:04;13.77;;;11.82;;
23676;SDS011;31493;49.058;12.190;2023-05-07T04:34:31;16.77;;;12.25;;
23676;SDS011;31493;49.058;12.190;2023-05-07T04:36:58;14.88;;;12.05;;
23676;SDS011;31493;49.058;12.190;2023-05-07T04:39:26;15.73;;;11.90;;
23676;SDS011;31493;49.058;12.190;2023-05-07T04:41:53;17.17;;;12.93;;
23676;SDS011;31493;49.058;12.190;2023-05-07T04:44:20;16.58;;;11.75;;
23676;SDS011;31493;49.058;12.190;2023-05-07T04:46:47;15.15;;;12.10;;
23676;SDS011;31493;49.058;12.190;2023-05-07T04:49:15;15.30;;;11.52;;
23676;SDS011;31493;49.058;12.190;2023-05-07T04:51:42;13.00;;;11.15;;
23676;SDS011;31493;49.058;12.190;2023-05-07T04:54:09;18.80;;;11.82;;
23676;SDS011;31493;49.058;12.190;2023-05-07T04:56:36;14.77;;;11.98;;
23676;SDS011;31493;49.058;12.190;2023-05-07T04:59:03;13.63;;;11.43;;
23676;SDS011;31493;49.058;12.190;2023-05-07T05:01:31;14.50;;;11.27;;
23676;SDS011;31493;49.058;12.190;2023-05-07T05:03:58;13.05;;;10.90;;
23676;SDS011;31493;49.058;12.190;2023-05-07T05:06:27;12.43;;;10.20;;
23676;SDS011;31493;49.058;12.190;2023-05-07T05:08:54;15.73;;;10.90;;
23676;SDS011;31493;49.058;12.190;2023-05-07T05:11:21;13.60;;;10.68;;
23676;SDS011;31493;49.058;12.190;2023-05-07T05:13:48;13.35;;;10.38;;
23676;SDS011;31493;49.058;12.190;2023-05-07T05:16:15;12.30;;;10.07;;
23676;SDS011;31493;49.058;12.190;2023-05-07T05:18:42;11.30;;;10.10;;
23676;SDS011;31493;49.058;12.190;2023-05-07T05:21:09;15.05;;;11.23;;
23676;SDS011;31493;49.058;12.190;2023-05-07T05:23:38;12.75;;;10.50;;
23676;SDS011;31493;49.058;12.190;2023-05-07T05:26:05;12.20;;;10.18;;
23676;SDS011;31493;49.058;12.190;2023-05-07T05:28:32;14.45;;;9.85;;
23676;SDS011;31493;49.058;12.190;2023-05-07T05:30:59;12.95;;;10.30;;
23676;SDS011;31493;49.058;12.190;2023-05-07T05:33:26;13.10;;;9.80;;
23676;SDS011;31493;49.058;12.190;2023-05-07T05:35:53;11.95;;;10.07;;
23676;SDS011;31493;49.058;12.190;2023-05-07T05:38:20;13.55;;;10.25;;
23676;SDS011;31493;49.058;12.190;2023-05-07T05:40:49;11.93;;;9.48;;
23676;SDS011;31493;49.058;12.190;2023-05-07T05:43:16;11.98;;;9.73;;
23676;SDS011;31493;49.058;12.190;2023-05-07T05:45:43;13.30;;;9.88;;
23676;SDS011;31493;49.058;12.190;2023-05-07T05:48:10;13.75;;;10.23;;
23676;SDS011;31493;49.058;12.190;2023-05-07T05:50:38;15.85;;;10.20;;
23676;SDS011;31493;49.058;12.190;2023-05-07T05:53:05;15.40;;;9.30;;
23676;SDS011;31493;49.058;12.190;2023-05-07T05:55:32;19.33;;;9.65;;
23676;SDS011;31493;49.058;12.190;2023-05-07T05:58:00;11.88;;;9.70;;
23676;SDS011;31493;49.058;12.190;2023-05-07T06:00:28;12.23;;;9.15;;
23676;SDS011;31493;49.058;12.190;2023-05-07T06:02:55;10.93;;;9.07;;
23676;SDS011;31493;49.058;12.190;2023-05-07T06:05:22;11.30;;;9.02;;
23676;SDS011;31493;49.058;12.190;2023-05-07T06:07:49;12.85;;;9.68;;
23676;SDS011;31493;49.058;12.190;2023-05-07T06:10:16;13.20;;;9.63;;
23676;SDS011;31493;49.058;12.190;2023-05-07T06:12:44;13.75;;;9.45;;
23676;SDS011;31493;49.058;12.190;2023-05-07T06:15:12;15.07;;;9.80;;
23676;SDS011;31493;49.058;12.190;2023-05-07T06:17:39;13.95;;;10.20;;
23676;SDS011;31493;49.058;12.190;2023-05-07T06:20:06;14.35;;;9.73;;
23676;SDS011;31493;49.058;12.190;2023-05-07T06:22:34;11.52;;;9.50;;
23676;SDS011;31493;49.058;12.190;2023-05-07T06:25:01;11.70;;;8.75;;
23676;SDS011;31493;49.058;12.190;2023-05-07T06:27:28;11.88;;;9.63;;
23676;SDS011;31493;49.058;12.190;2023-05-07T06:29:55;11.45;;;9.10;;
23676;SDS011;31493;49.058;12.190;2023-05-07T06:32:24;13.20;;;8.80;;
23676;SDS011;31493;49.058;12.190;2023-05-07T06:34:51;15.73;;;9.55;;
23676;SDS011;31493;49.058;12.190;2023-05-07T06:37:18;10.35;;;8.70;;
23676;SDS011;31493;49.058;12.190;2023-05-07T06:39:45;12.23;;;8.63;;
23676;SDS011;31493;49.058;12.190;2023-05-07T06:42:12;10.40;;;9.13;;
23676;SDS011;31493;49.058;12.190;2023-05-07T06:44:39;11.98;;;9.02;;
23676;SDS011;31493;49.058;12.190;2023-05-07T06:47:06;12.40;;;9.10;;
23676;SDS011;31493;49.058;12.190;2023-05-07T06:49:34;10.52;;;8.25;;
23676;SDS011;31493;49.058;12.190;2023-05-07T06:52:01;10.82;;;8.82;;
23676;SDS011;31493;49.058;12.190;2023-05-07T06:54:28;14.30;;;8.77;;
23676;SDS011;31493;49.058;12.190;2023-05-07T06:56:55;10.40;;;8.88;;
23676;SDS011;31493;49.058;12.190;2023-05-07T06:59:23;10.23;;;8.63;;
23676;SDS011;31493;49.058;12.190;2023-05-07T07:01:50;12.00;;;9.20;;
23676;SDS011;31493;49.058;12.190;2023-05-07T07:04:17;11.80;;;9.32;;
23676;SDS011;31493;49.058;12.190;2023-05-07T07:06:46;14.93;;;8.90;;
23676;SDS011;31493;49.058;12.190;2023-05-07T07:11:40;13.35;;;8.98;;
23676;SDS011;31493;49.058;12.190;2023-05-07T07:14:07;10.60;;;9.05;;
23676;SDS011;31493;49.058;12.190;2023-05-07T07:16:34;13.60;;;8.73;;
23676;SDS011;31493;49.058;12.190;2023-05-07T07:19:01;10.95;;;9.25;;
23676;SDS011;31493;49.058;12.190;2023-05-07T07:21:28;12.02;;;8.98;;
23676;SDS011;31493;49.058;12.190;2023-05-07T07:23:56;9.70;;;8.70;;
23676;SDS011;31493;49.058;12.190;2023-05-07T07:26:23;11.40;;;9.00;;
23676;SDS011;31493;49.058;12.190;2023-05-07T07:28:50;11.90;;;9.60;;
23676;SDS011;31493;49.058;12.190;2023-05-07T07:31:17;11.93;;;9.38;;
23676;SDS011;31493;49.058;12.190;2023-05-07T07:33:44;12.10;;;9.30;;
23676;SDS011;31493;49.058;12.190;2023-05-07T07:36:11;11.88;;;9.02;;
23676;SDS011;31493;49.058;12.190;2023-05-07T07:38:38;13.07;;;8.80;;
23676;SDS011;31493;49.058;12.190;2023-05-07T07:41:07;11.93;;;9.43;;
23676;SDS011;31493;49.058;12.190;2023-05-07T07:43:34;11.52;;;8.82;;
23676;SDS011;31493;49.058;12.190;2023-05-07T07:46:02;10.63;;;9.00;;
23676;SDS011;31493;49.058;12.190;2023-05-07T07:48:29;10.93;;;9.10;;
23676;SDS011;31493;49.058;12.190;2023-05-07T07:50:57;12.00;;;8.60;;
23676;SDS011;31493;49.058;12.190;2023-05-07T07:53:25;10.02;;;8.63;;
23676;SDS011;31493;49.058;12.190;2023-05-07T07:55:52;11.38;;;8.60;;
23676;SDS011;31493;49.058;12.190;2023-05-07T07:58:20;9.82;;;8.07;;
23676;SDS011;31493;49.058;12.190;2023-05-07T08:00:49;9.38;;;7.90;;
23676;SDS011;31493;49.058;12.190;2023-05-07T08:03:16;8.70;;;6.82;;
23676;SDS011;31493;49.058;12.190;2023-05-07T08:05:45;13.55;;;7.63;;
23676;SDS011;31493;49.058;12.190;2023-05-07T08:08:12;9.68;;;7.88;;
23676;SDS011;31493;49.058;12.190;2023-05-07T08:10:39;10.10;;;8.25;;
23676;SDS011;31493;49.058;12.190;2023-05-07T08:13:06;11.18;;;7.47;;
23676;SDS011;31493;49.058;12.190;2023-05-07T08:15:35;8.30;;;7.03;;
23676;SDS011;31493;49.058;12.190;2023-05-07T08:18:02;9.07;;;7.60;;
23676;SDS011;31493;49.058;12.190;2023-05-07T08:20:29;10.55;;;7.90;;
23676;SDS011;31493;49.058;12.190;2023-05-07T08:22:56;10.95;;;7.22;;
23676;SDS011;31493;49.058;12.190;2023-05-07T08:25:23;12.80;;;7.68;;
23676;SDS011;31493;49.058;12.190;2023-05-07T08:27:51;10.13;;;7.57;;
23676;SDS011;31493;49.058;12.190;2023-05-07T08:30:18;9.85;;;7.47;;
23676;SDS011;31493;49.058;12.190;2023-05-07T08:32:46;10.27;;;7.47;;
23676;SDS011;31493;49.058;12.190;2023-05-07T08:35:13;10.60;;;7.55;;
23676;SDS011;31493;49.058;12.190;2023-05-07T08:37:40;9.35;;;8.25;;
23676;SDS011;31493;49.058;12.190;2023-05-07T08:40:07;8.90;;;8.00;;
23676;SDS011;31493;49.058;12.190;2023-05-07T08:42:35;9.32;;;8.20;;
23676;SDS011;31493;49.058;12.190;2023-05-07T08:45:04;8.02;;;7.20;;
23676;SDS011;31493;49.058;12.190;2023-05-07T08:47:39;9.57;;;8.10;;
23676;SDS011;31493;49.058;12.190;2023-05-07T08:50:11;10.55;;;7.72;;
23676;SDS011;31493;49.058;12.190;2023-05-07T08:52:38;9.05;;;8.02;;
23676;SDS011;31493;49.058;12.190;2023-05-07T08:55:06;9.13;;;8.07;;
23676;SDS011;31493;49.058;12.190;2023-05-07T08:57:34;10.18;;;7.97;;
23676;SDS011;31493;49.058;12.190;2023-05-07T09:00:02;10.73;;;8.00;;
23676;SDS011;31493;49.058;12.190;2023-05-07T09:02:29;9.80;;;7.72;;
23676;SDS011;31493;49.058;12.190;2023-05-07T09:04:56;9.60;;;7.28;;
23676;SDS011;31493;49.058;12.190;2023-05-07T09:07:25;8.85;;;7.85;;
23676;SDS011;31493;49.058;12.190;2023-05-07T09:12:20;9.32;;;7.93;;
23676;SDS011;31493;49.058;12.190;2023-05-07T09:14:48;9.85;;;7.97;;
23676;SDS011;31493;49.058;12.190;2023-05-07T09:17:15;8.93;;;7.45;;
23676;SDS011;31493;49.058;12.190;2023-05-07T09:19:43;12.07;;;8.48;;
23676;SDS011;31493;49.058;12.190;2023-05-07T09:22:10;9.60;;;7.60;;
23676;SDS011;31493;49.058;12.190;2023-05-07T09:24:39;8.02;;;7.22;;
23676;SDS011;31493;49.058;12.190;2023-05-07T09:27:07;8.80;;;7.20;;
23676;SDS011;31493;49.058;12.190;2023-05-07T09:29:36;10.75;;;7.57;;
23676;SDS011;31493;49.058;12.190;2023-05-07T09:32:03;9.13;;;7.28;;
23676;SDS011;31493;49.058;12.190;2023-05-07T09:34:31;10.07;;;7.90;;
23676;SDS011;31493;49.058;12.190;2023-05-07T09:36:58;8.23;;;7.00;;
23676;SDS011;31493;49.058;12.190;2023-05-07T09:39:27;9.67;;;6.83;;
23676;SDS011;31493;49.058;12.190;2023-05-07T09:42:07;8.68;;;7.47;;
23676;SDS011;31493;49.058;12.190;2023-05-07T09:44:34;8.60;;;6.97;;
23676;SDS011;31493;49.058;12.190;2023-05-07T09:47:01;8.77;;;7.38;;
23676;SDS011;31493;49.058;12.190;2023-05-07T09:49:33;11.77;;;7.75;;
23676;SDS011;31493;49.058;12.190;2023-05-07T09:52:01;16.60;;;7.80;;
23676;SDS011;31493;49.058;12.190;2023-05-07T09:54:31;9.52;;;7.03;;
23676;SDS011;31493;49.058;12.190;2023-05-07T09:57:01;8.05;;;7.22;;
23676;SDS011;31493;49.058;12.190;2023-05-07T09:59:29;8.82;;;7.60;;
23676;SDS011;31493;49.058;12.190;2023-05-07T10:02:00;8.57;;;7.57;;
23676;SDS011;31493;49.058;12.190;2023-05-07T10:04:27;10.55;;;7.10;;
23676;SDS011;31493;49.058;12.190;2023-05-07T10:06:55;9.32;;;6.78;;
23676;SDS011;31493;49.058;12.190;2023-05-07T10:09:23;8.75;;;7.25;;
23676;SDS011;31493;49.058;12.190;2023-05-07T10:14:21;9.10;;;7.43;;
23676;SDS011;31493;49.058;12.190;2023-05-07T10:16:48;11.82;;;7.28;;
23676;SDS011;31493;49.058;12.190;2023-05-07T10:19:15;11.55;;;7.93;;
23676;SDS011;31493;49.058;12.190;2023-05-07T10:21:44;9.45;;;7.95;;
23676;SDS011;31493;49.058;12.190;2023-05-07T10:24:19;12.07;;;7.57;;
23676;SDS011;31493;49.058;12.190;2023-05-07T10:26:51;11.73;;;8.73;;
23676;SDS011;31493;49.058;12.190;2023-05-07T10:29:24;10.45;;;8.80;;
23676;SDS011;31493;49.058;12.190;2023-05-07T10:32:04;9.05;;;7.55;;
23676;SDS011;31493;49.058;12.190;2023-05-07T10:34:47;10.38;;;7.47;;
23676;SDS011;31493;49.058;12.190;2023-05-07T10:37:17;8.95;;;7.57;;
23676;SDS011;31493;49.058;12.190;2023-05-07T10:39:46;11.00;;;7.45;;
23676;SDS011;31493;49.058;12.190;2023-05-07T10:42:13;9.23;;;7.85;;
23676;SDS011;31493;49.058;12.190;2023-05-07T10:44:42;9.20;;;7.33;;
23676;SDS011;31493;49.058;12.190;2023-05-07T10:47:10;12.65;;;6.65;;
23676;SDS011;31493;49.058;12.190;2023-05-07T10:52:39;11.38;;;8.40;;
23676;SDS011;31493;49.058;12.190;2023-05-07T10:55:21;10.60;;;7.25;;
23676;SDS011;31493;49.058;12.190;2023-05-07T10:57:50;11.35;;;7.68;;
23676;SDS011;31493;49.058;12.190;2023-05-07T11:03:13;8.73;;;7.20;;
23676;SDS011;31493;49.058;12.190;2023-05-07T11:05:40;11.63;;;7.38;;
23676;SDS011;31493;49.058;12.190;2023-05-07T11:08:09;9.05;;;7.50;;
23676;SDS011;31493;49.058;12.190;2023-05-07T11:10:49;11.73;;;8.30;;
23676;SDS011;31493;49.058;12.190;2023-05-07T11:13:18;11.55;;;7.60;;
23676;SDS011;31493;49.058;12.190;2023-05-07T11:16:15;11.45;;;7.45;;
23676;SDS011;31493;49.058;12.190;2023-05-07T11:18:47;10.98;;;8.55;;
23676;SDS011;31493;49.058;12.190;2023-05-07T11:24:01;11.90;;;8.02;;
23676;SDS011;31493;49.058;12.190;2023-05-07T11:26:29;7.70;;;6.10;;
23676;SDS011;31493;49.058;12.190;2023-05-07T11:28:57;7.30;;;6.15;;
23676;SDS011;31493;49.058;12.190;2023-05-07T11:31:27;5.97;;;4.60;;
23676;SDS011;31493;49.058;12.190;2023-05-07T11:33:55;6.38;;;4.57;;
23676;SDS011;31493;49.058;12.190;2023-05-07T11:36:23;6.78;;;4.57;;
23676;SDS011;31493;49.058;12.190;2023-05-07T11:38:51;4.82;;;3.75;;
23676;SDS011;31493;49.058;12.190;2023-05-07T11:41:18;4.75;;;2.90;;
23676;SDS011;31493;49.058;12.190;2023-05-07T11:43:54;5.18;;;3.60;;
23676;SDS011;31493;49.058;12.190;2023-05-07T11:46:22;5.20;;;3.63;;
23676;SDS011;31493;49.058;12.190;2023-05-07T11:48:50;4.25;;;3.22;;
23676;SDS011;31493;49.058;12.190;2023-05-07T11:51:21;4.30;;;3.20;;
23676;SDS011;31493;49.058;12.190;2023-05-07T11:53:51;5.68;;;2.80;;
23676;SDS011;31493;49.058;12.190;2023-05-07T11:56:18;5.68;;;3.00;;
23676;SDS011;31493;49.058;12.190;2023-05-07T11:58:46;4.82;;;3.30;;
23676;SDS011;31493;49.058;12.190;2023-05-07T12:01:15;4.47;;;3.15;;
23676;SDS011;31493;49.058;12.190;2023-05-07T12:03:44;5.43;;;4.00;;
23676;SDS011;31493;49.058;12.190;2023-05-07T12:06:14;5.60;;;3.78;;
23676;SDS011;31493;49.058;12.190;2023-05-07T12:08:42;6.43;;;4.53;;
23676;SDS011;31493;49.058;12.190;2023-05-07T12:11:13;9.52;;;4.68;;
23676;SDS011;31493;49.058;12.190;2023-05-07T12:13:43;6.53;;;4.55;;
23676;SDS011;31493;49.058;12.190;2023-05-07T12:16:10;6.90;;;4.80;;
23676;SDS011;31493;49.058;12.190;2023-05-07T12:18:37;6.05;;;4.28;;
23676;SDS011;31493;49.058;12.190;2023-05-07T12:21:05;8.95;;;4.18;;
23676;SDS011;31493;49.058;12.190;2023-05-07T12:23:35;5.60;;;4.65;;
23676;SDS011;31493;49.058;12.190;2023-05-07T12:26:03;6.28;;;4.47;;
23676;SDS011;31493;49.058;12.190;2023-05-07T12:28:30;5.55;;;4.70;;
23676;SDS011;31493;49.058;12.190;2023-05-07T12:30:58;7.47;;;4.80;;
23676;SDS011;31493;49.058;12.190;2023-05-07T12:33:26;5.35;;;4.35;;
23676;SDS011;31493;49.058;12.190;2023-05-07T12:35:54;5.57;;;4.53;;
23676;SDS011;31493;49.058;12.190;2023-05-07T12:38:22;4.82;;;3.90;;
23676;SDS011;31493;49.058;12.190;2023-05-07T12:40:50;6.13;;;3.95;;
23676;SDS011;31493;49.058;12.190;2023-05-07T12:43:21;4.95;;;3.40;;
23676;SDS011;31493;49.058;12.190;2023-05-07T12:45:51;5.15;;;3.55;;
23676;SDS011;31493;49.058;12.190;2023-05-07T12:48:20;4.45;;;3.30;;
23676;SDS011;31493;49.058;12.190;2023-05-07T12:50:51;8.87;;;3.17;;
23676;SDS011;31493;49.058;12.190;2023-05-07T12:53:20;5.20;;;3.08;;
23676;SDS011;31493;49.058;12.190;2023-05-07T12:55:48;5.78;;;3.60;;
23676;SDS011;31493;49.058;12.190;2023-05-07T12:58:19;4.32;;;3.70;;
23676;SDS011;31493;49.058;12.190;2023-05-07T13:00:47;7.20;;;3.38;;
23676;SDS011;31493;49.058;12.190;2023-05-07T13:05:49;6.13;;;4.13;;
23676;SDS011;31493;49.058;12.190;2023-05-07T13:08:29;4.68;;;4.00;;
23676;SDS011;31493;49.058;12.190;2023-05-07T13:11:00;4.72;;;3.78;;
23676;SDS011;31493;49.058;12.190;2023-05-07T13:13:29;9.80;;;4.88;;
23676;SDS011;31493;49.058;12.190;2023-05-07T13:15:56;3.65;;;3.15;;
23676;SDS011;31493;49.058;12.190;2023-05-07T13:18:24;4.40;;;3.15;;
23676;SDS011;31493;49.058;12.190;2023-05-07T13:20:51;4.90;;;3.10;;
23676;SDS011;31493;49.058;12.190;2023-05-07T13:23:18;3.15;;;2.72;;
23676;SDS011;31493;49.058;12.190;2023-05-07T13:25:46;4.90;;;3.00;;
23676;SDS011;31493;49.058;12.190;2023-05-07T13:28:14;4.60;;;3.10;;
23676;SDS011;31493;49.058;12.190;2023-05-07T13:30:41;5.65;;;3.17;;
23676;SDS011;31493;49.058;12.190;2023-05-07T13:33:08;5.10;;;3.03;;
23676;SDS011;31493;49.058;12.190;2023-05-07T13:35:36;3.30;;;2.35;;
23676;SDS011;31493;49.058;12.190;2023-05-07T13:38:03;4.80;;;3.28;;
23676;SDS011;31493;49.058;12.190;2023-05-07T13:40:30;3.97;;;3.08;;
23676;SDS011;31493;49.058;12.190;2023-05-07T13:42:58;3.65;;;2.80;;
23676;SDS011;31493;49.058;12.190;2023-05-07T13:45:28;4.55;;;2.72;;
23676;SDS011;31493;49.058;12.190;2023-05-07T13:47:56;5.95;;;3.88;;
23676;SDS011;31493;49.058;12.190;2023-05-07T13:50:23;4.88;;;3.50;;
23676;SDS011;31493;49.058;12.190;2023-05-07T13:52:52;6.10;;;3.70;;
23676;SDS011;31493;49.058;12.190;2023-05-07T13:55:19;5.78;;;3.78;;
23676;SDS011;31493;49.058;12.190;2023-05-07T13:57:53;7.15;;;3.55;;
23676;SDS011;31493;49.058;12.190;2023-05-07T14:00:22;4.68;;;3.45;;
23676;SDS011;31493;49.058;12.190;2023-05-07T14:02:51;3.72;;;3.33;;
23676;SDS011;31493;49.058;12.190;2023-05-07T14:05:19;3.88;;;3.10;;
23676;SDS011;31493;49.058;12.190;2023-05-07T14:07:46;6.03;;;3.88;;
23676;SDS011;31493;49.058;12.190;2023-05-07T14:10:14;5.20;;;3.58;;
23676;SDS011;31493;49.058;12.190;2023-05-07T14:12:41;5.55;;;4.00;;
23676;SDS011;31493;49.058;12.190;2023-05-07T14:15:09;3.50;;;2.92;;
23676;SDS011;31493;49.058;12.190;2023-05-07T14:17:36;6.80;;;3.20;;
23676;SDS011;31493;49.058;12.190;2023-05-07T14:20:05;4.22;;;3.55;;
23676;SDS011;31493;49.058;12.190;2023-05-07T14:22:33;5.20;;;3.58;;
23676;SDS011;31493;49.058;12.190;2023-05-07T14:25:00;5.95;;;3.72;;
23676;SDS011;31493;49.058;12.190;2023-05-07T14:27:27;5.82;;;3.97;;
23676;SDS011;31493;49.058;12.190;2023-05-07T14:29:54;5.03;;;4.35;;
23676;SDS011;31493;49.058;12.190;2023-05-07T14:32:21;6.70;;;4.90;;
23676;SDS011;31493;49.058;12.190;2023-05-07T14:34:48;7.63;;;4.30;;
23676;SDS011;31493;49.058;12.190;2023-05-07T14:37:17;6.07;;;4.63;;
23676;SDS011;31493;49.058;12.190;2023-05-07T14:39:45;5.25;;;4.25;;
23676;SDS011;31493;49.058;12.190;2023-05-07T14:42:12;6.55;;;4.70;;
23676;SDS011;31493;49.058;12.190;2023-05-07T14:44:39;6.75;;;4.82;;
23676;SDS011;31493;49.058;12.190;2023-05-07T14:47:07;7.05;;;4.47;;
23676;SDS011;31493;49.058;12.190;2023-05-07T14:49:34;7.13;;;5.13;;
23676;SDS011;31493;49.058;12.190;2023-05-07T14:52:01;5.65;;;4.80;;
23676;SDS011;31493;49.058;12.190;2023-05-07T14:54:33;5.85;;;5.00;;